• Join FlightAware (Why Join?)
  • Login
  • US Flag 
05:02AM EDT


 

Airport Tracker/Info


-or-


 

Live Flight TrackerFlight Track Log ✈ SWA1031 ✈ 14-May-2013 ✈ KSMF - KONT

Flight Track Log - Related Links

Times and Time Zones

All times are in EDT time to prevent confusion due to time zone crossing. See the SWA1031 flight status page for this flight to view local times or setup timezone preferences in your user account.

Time Position Orientation Groundspeed Altitude Reporting Facility
EDT Latitude Longitude Course Direction KTS MPH feet Rate Location/Type
03:08PM 38.6333 -121.5667 117° Southeast 224 258 2,800  Level Northern Cal TRACON
03:09PM 38.6000 -121.4833 117° Southeast 268 308 6,100 3,480 Climbing Northern Cal TRACON
03:10PM 38.5667 -121.4000 117° Southeast 288 331 9,800 3,540 Climbing Northern Cal TRACON
03:11PM 38.5533 -121.3736 123° Southeast 284 327 10,600 2,220 Climbing Oakland Center
03:12PM 38.5075 -121.2769 121° Southeast 322 371 12,700 2,580 Climbing Oakland Center
03:13PM 38.4594 -121.1706 120° Southeast 352 405 15,900 3,000 Climbing Oakland Center
03:14PM 38.4075 -121.0589 121° Southeast 362 417 18,900 1,620 Climbing Oakland Center
03:15PM 38.3453 -120.9256 121° Southeast 365 420 19,300 1,320 Climbing Oakland Center
03:16PM 38.2922 -120.8136 121° Southeast 369 425 21,700 2,400 Climbing Oakland Center
03:17PM 38.2347 -120.6931 121° Southeast 394 453 24,300 2,160 Climbing Oakland Center
03:18PM 38.1489 -120.6011 140° Southeast 400 460 26,200 1,560 Climbing Oakland Center
03:19PM 38.0519 -120.5081 143° Southeast 425 489 27,500 1,260 Climbing Oakland Center
03:20PM 37.9503 -120.4083 142° Southeast 449 517 28,800 720 Climbing Oakland Center
03:21PM 37.8525 -120.2950 138° Southeast 470 541 29,000 60 Climbing Oakland Center
03:22PM 37.7525 -120.1908 141° Southeast 468 539 29,000 660 Level Oakland Center
03:23PM 37.6331 -120.1275 157° South 455 524 30,400 960 Climbing Oakland Center
03:24PM 37.5217 -120.0603 154° Southeast 444 511 31,000 240 Climbing Oakland Center
03:25PM 37.3889 -119.9803 154° Southeast 438 504 31,000  Level Oakland Center
03:26PM 37.2767 -119.9136 155° Southeast 443 510 31,000  Level Oakland Center
03:27PM 37.1650 -119.8472 155° Southeast 444 511 31,000  Level Oakland Center
03:28PM 37.0514 -119.7786 154° Southeast 445 512 31,000  Level Oakland Center
03:29PM 36.9378 -119.7111 155° Southeast 449 517 31,000  Level Oakland Center
03:30PM 36.8244 -119.6433 154° Southeast 450 518 31,000  Level Oakland Center
03:31PM 36.7103 -119.5778 155° Southeast 448 516 31,000  Level Oakland Center
03:32PM 36.5978 -119.5119 155° Southeast 447 514 31,000  Level Oakland Center
03:33PM 36.4833 -119.4458 155° Southeast 452 520 31,000  Level Oakland Center
03:34PM 36.3700 -119.3800 155° Southeast 449 517 31,000 -60 Level Oakland Center
03:35PM 36.2556 -119.3144 155° Southeast 450 518 30,900  Descending Oakland Center
03:36PM 36.1414 -119.2503 156° South 450 518 31,000  Climbing Oakland Center
03:37PM 36.0244 -119.1831 155° Southeast 462 532 31,000  Level Oakland Center
03:38PM 35.8919 -119.1100 156° South 436 502 31,000  Level Oakland Center
03:39PM 35.7803 -119.0464 155° Southeast 439 505 31,000  Level Oakland Center
03:40PM 35.6675 -118.9819 155° Southeast 442 509 31,000  Level Oakland Center
03:41PM 35.5542 -118.9189 156° South 444 511 31,000  Level Oakland Center
03:42PM 35.4394 -118.8544 155° Southeast 448 516 31,000  Level Oakland Center
03:43PM 35.3247 -118.7903 155° Southeast 451 519 31,000  Level Oakland Center
03:44PM 35.2103 -118.7264 155° Southeast 452 520 31,000  Level Oakland Center
03:44PM 35.1878 -118.7136 155° Southeast 451 519 31,000  Level Los Angeles Center
03:45PM 35.0731 -118.6500 156° South 450 518 31,000 -540 Level Los Angeles Center
03:47PM 34.9567 -118.5358 141° Southeast 454 522 30,000 -1,500 Descending Los Angeles Center
03:48PM 34.8797 -118.4231 130° Southeast 450 518 28,000 -2,040 Descending Los Angeles Center
03:49PM 34.8008 -118.3103 130° Southeast 444 511 25,800 -2,220 Descending Los Angeles Center
03:50PM 34.7269 -118.2039 130° Southeast 427 491 23,500 -2,220 Descending Los Angeles Center
03:51PM 34.6375 -118.0758 130° Southeast 418 481 20,900 -1,860 Descending Los Angeles Center
03:52PM 34.5647 -117.9200 120° Southeast 380 437 18,900 -1,800 Descending Los Angeles Center
03:53PM 34.5139 -117.8103 119° Southeast 377 434 16,900 -1,680 Descending Los Angeles Center
03:54PM 34.4664 -117.7083 119° Southeast 354 407 15,500 -1,320 Descending Los Angeles Center
03:55PM 34.4203 -117.6078 119° Southeast 345 397 14,200 -840 Descending Los Angeles Center
03:56PM 34.3814 -117.5136 117° Southeast 324 373 13,900 -1,020 Descending Los Angeles Center
03:57PM 34.3319 -117.4119 120° Southeast 292 336 12,200 -1,800 Descending Los Angeles Center
03:58PM 34.2767 -117.3344 131° Southeast 293 337 10,200 -1,500 Descending Los Angeles Center
03:59PM 34.2106 -117.3147 166° South 250 288 9,100 -1,260 Descending Los Angeles Center
04:00PM 34.1539 -117.2969 165° South 219 252 7,600 -1,800 Descending Los Angeles Center
04:01PM 34.1167 -117.3167 204° Southwest 207 238 5,900 -2,040 Descending Southern California TRACON
04:02PM 34.0833 -117.3667 231° Southwest 215 247 4,000 -1,440 Descending Southern California TRACON
04:03PM 34.0667 -117.4167 248° West 184 212 3,200 -840 Descending Southern California TRACON
04:04PM 34.0500 -117.4833 253° West 167 192 2,400 -780 Descending Southern California TRACON
04:05PM 34.0500 -117.5333 270° West 138 159 1,700 -720 Descending Southern California TRACON
04:06PM 34.0500 -117.5667 270° West 132 152 1,100 -600 Descending Southern California TRACON
04:08PM 34.0500 -117.6000 270° West  Level FlightAware Approximate
04:15PM 34.0560 -117.6012 270° West  Level Estimated